Time;durP1;ratioP1;P1;durP2;ratioP2;P2;SDS_P1;SDS_P2;PMS_P1;PMS_P2;Temp;Humidity;BMP_temperature;BMP_pressure;BME280_temperature;BME280_humidity;BME280_pressure;Samples;Min_cycle;Max_cycle;Signal;HPM_P1;HPM_P2
2022/10/02 00:08:03;;;;;;;6.25;3.90;;;13.20;99.90;;;;;;20861654;28;20100;-80
2022/10/02 00:18:14;;;;;;;8.05;3.40;;;13.20;99.90;;;;;;20899677;28;20048;-81
2022/10/02 00:28:27;;;;;;;5.22;3.83;;;13.30;99.90;;;;;;20883443;28;20044;-81
2022/10/02 00:39:00;;;;;;;5.90;3.72;;;13.30;99.90;;;;;;20925746;28;20065;-81
2022/10/02 00:49:24;;;;;;;6.45;2.72;;;13.30;99.90;;;;;;20897003;28;20102;-81
2022/10/02 00:59:45;;;;;;;4.68;2.53;;;13.30;99.90;;;;;;20907432;28;20097;-81
2022/10/02 01:09:46;;;;;;;4.05;2.25;;;13.30;99.90;;;;;;20911303;28;20037;-81
2022/10/02 01:19:47;;;;;;;8.03;2.37;;;13.30;99.90;;;;;;20893701;28;20051;-80
2022/10/02 01:29:54;;;;;;;5.03;2.30;;;13.30;99.90;;;;;;20868069;28;20056;-81
2022/10/02 01:40:01;;;;;;;4.07;2.80;;;13.30;99.90;;;;;;20936197;28;20045;-80
2022/10/02 01:50:15;;;;;;;4.13;3.10;;;13.40;99.90;;;;;;20917628;28;20045;-81
2022/10/02 02:00:19;;;;;;;6.40;4.03;;;13.30;99.90;;;;;;21144797;23;20052;-78
2022/10/02 02:10:53;;;;;;;11.95;4.15;;;13.30;99.90;;;;;;21105531;28;20093;-78
2022/10/02 02:21:18;;;;;;;9.10;4.20;;;13.30;99.90;;;;;;21102031;28;20066;-78
2022/10/02 02:31:26;;;;;;;13.38;5.40;;;13.20;99.90;;;;;;21105444;28;20051;-78
2022/10/02 02:41:31;;;;;;;11.82;5.13;;;13.20;99.90;;;;;;21114490;28;20051;-79
2022/10/02 02:51:38;;;;;;;7.18;4.57;;;13.20;99.90;;;;;;21106361;28;20051;-79
2022/10/02 03:01:39;;;;;;;9.85;5.22;;;13.20;99.90;;;;;;21139601;28;20044;-79
2022/10/02 03:11:40;;;;;;;;;;;13.20;99.90;;;;;;21127115;28;20043;-79
2022/10/02 03:21:47;;;;;;;14.90;6.07;;;13.20;99.90;;;;;;21098150;28;20359;-78
2022/10/02 03:31:49;;;;;;;7.53;4.82;;;13.20;99.90;;;;;;21147181;28;20724;-79
2022/10/02 03:41:50;;;;;;;6.63;3.65;;;13.30;99.90;;;;;;21197906;28;20454;-79
2022/10/02 03:51:50;;;;;;;13.03;4.40;;;13.30;99.90;;;;;;21198268;28;20035;-78
2022/10/02 04:01:54;;;;;;;11.47;4.50;;;13.30;99.90;;;;;;21197708;28;20092;-78
2022/10/02 04:12:09;;;;;;;8.40;4.10;;;13.40;99.90;;;;;;21189442;28;20035;-78
2022/10/02 04:22:33;;;;;;;11.82;4.80;;;13.30;99.90;;;;;;21169848;28;20047;-78
2022/10/02 04:32:35;;;;;;;8.10;4.93;;;13.30;99.90;;;;;;21151435;28;20054;-78
2022/10/02 04:42:58;;;;;;;13.32;4.63;;;13.40;99.90;;;;;;21162181;28;20040;-78
2022/10/02 04:53:17;;;;;;;;;;;13.40;99.90;;;;;;21179551;28;20031;-78
2022/10/02 05:03:25;;;;;;;10.90;4.13;;;13.30;99.90;;;;;;21175711;28;19914;-78
2022/10/02 05:13:58;;;;;;;14.95;3.50;;;13.30;99.90;;;;;;21176342;28;20131;-78
2022/10/02 05:24:23;;;;;;;6.07;3.67;;;13.30;99.90;;;;;;21175001;28;20496;-78
2022/10/02 05:34:49;;;;;;;9.10;3.88;;;13.20;99.90;;;;;;21173374;28;20078;-78
2022/10/02 05:44:58;;;;;;;11.77;3.80;;;13.10;99.90;;;;;;21172475;28;20047;-78
2022/10/02 05:55:21;;;;;;;9.60;3.30;;;13.00;99.90;;;;;;21094827;28;20096;-78
2022/10/02 06:05:45;;;;;;;9.35;3.92;;;13.10;99.90;;;;;;21087877;28;20040;-78
2022/10/02 06:15:56;;;;;;;5.45;3.08;;;13.20;99.90;;;;;;21086924;28;20040;-78
2022/10/02 06:26:35;;;;;;;8.80;5.60;;;13.20;99.90;;;;;;21033873;28;20052;-77
2022/10/02 06:36:51;;;;;;;7.32;4.10;;;13.30;99.90;;;;;;20962150;28;20040;-78
2022/10/02 06:47:02;;;;;;;10.85;5.18;;;13.60;99.90;;;;;;20990879;28;20036;-77
2022/10/02 06:57:10;;;;;;;7.07;3.23;;;13.70;99.90;;;;;;20986169;28;20514;-78
2022/10/02 07:07:19;;;;;;;7.03;3.58;;;13.70;99.90;;;;;;20998406;28;20094;-78
2022/10/02 07:17:42;;;;;;;14.93;7.05;;;13.80;99.90;;;;;;20994341;28;20498;-77
2022/10/02 07:28:13;;;;;;;8.52;4.38;;;13.90;99.90;;;;;;20996265;28;20051;-77
2022/10/02 07:38:44;;;;;;;7.63;3.33;;;14.00;99.90;;;;;;20943695;28;20051;-78
2022/10/02 07:49:18;;;;;;;10.02;3.72;;;14.10;99.90;;;;;;21023084;28;20036;-78
2022/10/02 07:59:20;;;;;;;8.23;5.03;;;14.30;99.90;;;;;;21012180;22;20143;-79
2022/10/02 08:09:38;;;;;;;9.05;4.47;;;14.30;99.90;;;;;;20947401;28;20037;-80
2022/10/02 08:19:49;;;;;;;7.05;4.30;;;14.30;99.90;;;;;;20938956;28;20124;-80
2022/10/02 08:30:02;;;;;;;11.37;5.00;;;14.40;99.90;;;;;;20921148;28;20037;-80
2022/10/02 08:40:15;;;;;;;6.70;4.10;;;14.20;99.90;;;;;;20942652;28;20029;-80
2022/10/02 08:50:31;;;;;;;6.38;4.18;;;14.40;99.90;;;;;;20919789;28;20045;-80
2022/10/02 09:01:16;;;;;;;12.20;6.45;;;14.80;99.90;;;;;;21005647;28;20037;-79
2022/10/02 09:11:36;;;;;;;9.80;6.38;;;14.80;99.90;;;;;;20811521;28;20044;-80
2022/10/02 09:22:23;;;;;;;13.75;5.28;;;15.30;99.90;;;;;;20957958;28;20040;-80
2022/10/02 09:33:07;;;;;;;8.15;3.40;;;15.30;99.90;;;;;;20903221;28;20040;-79
2022/10/02 09:43:14;;;;;;;5.05;3.03;;;15.30;99.90;;;;;;20952310;28;20372;-80
2022/10/02 09:53:15;;;;;;;6.57;3.50;;;15.40;99.90;;;;;;20952091;28;20096;-80
2022/10/02 10:03:18;;;;;;;3.10;2.33;;;15.70;99.90;;;;;;21016468;28;20063;-80
2022/10/02 10:13:57;;;;;;;4.05;2.65;;;15.70;99.90;;;;;;20963816;28;20041;-80
2022/10/02 10:24:13;;;;;;;4.93;2.40;;;15.90;99.90;;;;;;20912895;28;20071;-80
2022/10/02 10:34:17;;;;;;;5.75;1.92;;;16.00;99.90;;;;;;20949118;28;20487;-81
2022/10/02 10:44:21;;;;;;;3.15;1.17;;;16.90;99.90;;;;;;20894671;28;20047;-80
2022/10/02 10:54:49;;;;;;;1.58;0.90;;;16.80;99.90;;;;;;20922531;28;20123;-80
2022/10/02 11:05:05;;;;;;;1.90;0.73;;;17.20;99.90;;;;;;20922012;28;20036;-79
2022/10/02 11:15:42;;;;;;;4.60;1.83;;;17.20;99.90;;;;;;20965502;28;20491;-80
2022/10/02 11:26:04;;;;;;;1.33;0.80;;;17.70;99.90;;;;;;20939387;28;20036;-81
2022/10/02 11:36:21;;;;;;;2.25;1.33;;;18.80;99.90;;;;;;20959210;28;20033;-80
2022/10/02 11:46:47;;;;;;;2.80;0.50;;;19.90;99.90;;;;;;20966397;28;20039;-80
2022/10/02 11:56:59;;;;;;;1.58;0.50;;;19.20;99.90;;;;;;20966478;28;20040;-79
2022/10/02 12:07:27;;;;;;;0.43;0.30;;;18.90;99.90;;;;;;20948142;28;20041;-80
2022/10/02 12:17:57;;;;;;;0.40;0.25;;;19.20;99.90;;;;;;20966416;28;20029;-79
2022/10/02 12:28:37;;;;;;;6.40;0.20;;;20.50;99.90;;;;;;20948328;28;20517;-80
2022/10/02 12:38:59;;;;;;;0.28;0.20;;;20.30;99.90;;;;;;20950771;28;20041;-80
2022/10/02 12:49:00;;;;;;;;;;;19.80;99.90;;;;;;20928755;28;20386;-79
2022/10/02 12:59:10;;;;;;;0.77;0.20;;;19.80;99.90;;;;;;20944034;28;19919;-80
2022/10/02 13:09:48;;;;;;;2.67;0.20;;;20.40;99.90;;;;;;20900059;28;20041;-79
2022/10/02 13:20:25;;;;;;;0.30;0.20;;;20.90;99.90;;;;;;20953957;28;20036;-79
2022/10/02 13:30:32;;;;;;;0.28;0.22;;;21.90;99.90;;;;;;20893310;28;20072;-79
2022/10/02 13:40:33;;;;;;;1.15;0.30;;;21.50;99.90;;;;;;20950920;28;20056;-80
2022/10/02 13:50:51;;;;;;;2.50;0.20;;;20.50;99.90;;;;;;20943690;28;20032;-79
2022/10/02 14:01:00;;;;;;;2.17;0.22;;;20.20;99.90;;;;;;20951640;28;20033;-80
2022/10/02 14:11:29;;;;;;;0.50;0.30;;;20.10;99.90;;;;;;21028582;22;20055;-76
2022/10/02 14:21:36;;;;;;;0.28;0.28;;;20.20;99.90;;;;;;21064693;28;20047;-77
2022/10/02 14:31:59;;;;;;;1.55;0.30;;;20.70;99.90;;;;;;20993783;28;20055;-76
2022/10/02 14:42:28;;;;;;;0.75;0.25;;;20.30;99.90;;;;;;20994246;28;20040;-76
2022/10/02 14:52:57;;;;;;;1.05;0.40;;;19.90;99.90;;;;;;20979223;28;20040;-76
2022/10/02 15:03:09;;;;;;;1.35;0.38;;;19.30;99.90;;;;;;20949259;28;20127;-76
2022/10/02 15:13:30;;;;;;;2.28;0.40;;;19.80;99.90;;;;;;21004653;28;20048;-77
2022/10/02 15:23:50;;;;;;;1.00;0.43;;;18.90;99.90;;;;;;21003796;28;20046;-76
2022/10/02 15:34:17;;;;;;;1.65;0.50;;;18.50;99.90;;;;;;21003456;28;20120;-76
2022/10/02 15:44:55;;;;;;;1.08;0.50;;;18.20;99.90;;;;;;21015452;28;20083;-76
2022/10/02 15:55:27;;;;;;;2.70;0.60;;;18.00;99.90;;;;;;21001603;28;20045;-77
2022/10/02 16:05:52;;;;;;;3.23;1.00;;;17.90;99.90;;;;;;21021607;28;20108;-76
2022/10/02 16:16:04;;;;;;;4.13;0.70;;;17.60;99.90;;;;;;21020561;28;20037;-76
2022/10/02 16:26:09;;;;;;;5.30;0.60;;;17.40;99.90;;;;;;21055367;28;20028;-75
2022/10/02 16:36:48;;;;;;;4.07;0.47;;;17.40;99.90;;;;;;21018539;28;20051;-77
2022/10/02 16:47:18;;;;;;;1.63;0.52;;;17.30;99.90;;;;;;20962395;28;20058;-77
2022/10/02 16:57:25;;;;;;;0.95;0.68;;;17.00;99.90;;;;;;21020317;28;20049;-77
2022/10/02 17:07:54;;;;;;;2.63;0.75;;;16.70;99.90;;;;;;20977528;28;20063;-75
2022/10/02 17:18:16;;;;;;;1.55;0.70;;;16.50;99.90;;;;;;20994755;28;20041;-76
2022/10/02 17:28:47;;;;;;;3.03;1.00;;;16.40;99.90;;;;;;20976115;28;20499;-76
2022/10/02 17:38:56;;;;;;;2.42;0.80;;;16.20;99.90;;;;;;20993809;28;20049;-76
2022/10/02 17:49:12;;;;;;;2.10;0.98;;;16.00;99.90;;;;;;20992657;28;20513;-76
2022/10/02 17:59:44;;;;;;;1.38;0.65;;;15.80;99.90;;;;;;20992173;28;20039;-75
2022/10/02 18:09:51;;;;;;;2.45;1.00;;;15.80;99.90;;;;;;20994258;28;20051;-75
2022/10/02 18:20:04;;;;;;;2.83;0.90;;;15.80;99.90;;;;;;20993893;28;20078;-75
2022/10/02 18:30:19;;;;;;;3.75;1.05;;;15.80;99.90;;;;;;21054055;28;20041;-75
2022/10/02 18:40:42;;;;;;;1.77;0.75;;;15.80;99.90;;;;;;20990202;28;20111;-75
2022/10/02 18:51:02;;;;;;;2.67;0.50;;;15.80;99.90;;;;;;20989605;28;20055;-75
2022/10/02 19:01:08;;;;;;;2.75;0.73;;;15.80;99.90;;;;;;21020005;28;20044;-76
2022/10/02 19:11:25;;;;;;;8.63;0.60;;;15.70;99.90;;;;;;21039049;28;20036;-76
2022/10/02 19:21:25;;;;;;;1.17;0.32;;;15.70;99.90;;;;;;21010042;28;20041;-75
2022/10/02 19:31:32;;;;;;;0.80;0.40;;;15.70;99.90;;;;;;20988771;28;20067;-76
2022/10/02 19:41:41;;;;;;;1.30;0.60;;;15.60;99.90;;;;;;21001997;28;20044;-77
2022/10/02 19:51:45;;;;;;;7.90;0.50;;;15.40;99.90;;;;;;21022548;28;20074;-76
2022/10/02 20:01:59;;;;;;;1.83;0.90;;;15.00;99.90;;;;;;21018302;28;20044;-76
2022/10/02 20:12:04;;;;;;;1.48;0.50;;;14.90;99.90;;;;;;21034236;28;20031;-76
2022/10/02 20:22:22;;;;;;;0.95;0.57;;;14.80;99.90;;;;;;21040586;28;20046;-76
2022/10/02 20:32:30;;;;;;;1.55;0.50;;;14.70;99.90;;;;;;21025087;28;20040;-77
2022/10/02 20:42:40;;;;;;;3.45;0.80;;;14.70;99.90;;;;;;21026239;28;20035;-76
2022/10/02 20:53:02;;;;;;;2.65;0.55;;;14.80;99.90;;;;;;21024938;28;20068;-76
2022/10/02 21:03:24;;;;;;;1.07;0.40;;;14.70;99.90;;;;;;21027606;28;20036;-76
2022/10/02 21:13:28;;;;;;;7.28;0.70;;;14.60;99.90;;;;;;21049902;28;20046;-77
2022/10/02 21:23:44;;;;;;;3.28;0.90;;;14.50;99.90;;;;;;21033651;28;20491;-76
2022/10/02 21:33:50;;;;;;;1.35;0.65;;;14.40;99.90;;;;;;21028264;22;20044;-80
2022/10/02 21:44:16;;;;;;;3.22;0.60;;;14.30;99.90;;;;;;21053156;28;20449;-79
2022/10/02 21:54:47;;;;;;;0.80;0.60;;;14.30;99.90;;;;;;21056895;28;20080;-80
2022/10/02 22:05:24;;;;;;;3.92;1.75;;;14.30;99.90;;;;;;21048467;28;20053;-79
2022/10/02 22:15:54;;;;;;;1.65;1.17;;;14.20;99.90;;;;;;21050620;28;20126;-78
2022/10/02 22:26:14;;;;;;;3.30;1.58;;;14.20;99.90;;;;;;21049927;28;20036;-79
2022/10/02 22:36:45;;;;;;;1.95;1.00;;;14.10;99.90;;;;;;21020083;28;20032;-79
2022/10/02 22:46:55;;;;;;;1.38;0.85;;;14.10;99.90;;;;;;21049492;28;20039;-79
2022/10/02 22:57:07;;;;;;;1.17;0.93;;;14.10;99.90;;;;;;21096983;28;20036;-79
2022/10/02 23:07:29;;;;;;;1.63;1.27;;;14.20;99.90;;;;;;20996172;28;20036;-80
2022/10/02 23:17:53;;;;;;;1.55;1.23;;;14.20;99.90;;;;;;21023693;28;20498;-80
2022/10/02 23:28:16;;;;;;;2.03;1.58;;;14.10;99.90;;;;;;20988643;28;20091;-80
2022/10/02 23:38:38;;;;;;;1.67;1.17;;;14.10;99.90;;;;;;21025588;28;20064;-80
2022/10/02 23:48:40;;;;;;;1.70;1.40;;;14.00;99.90;;;;;;21057390;28;20032;-80
2022/10/02 23:58:58;;;;;;;5.45;3.05;;;13.80;99.90;;;;;;21068550;28;20036;-80
